Tainan Airport

Airport
ICAO code: 
RCNN
IATA Code: 
TNN
Summary
ICAO Region: 
APAC
Territory: 
Location: 
Tainan, Tainan
Serving: 
Tainan
Elevation: 
63 ft
Coordinates: 
Aerial View: 
22° 57' 1.3" N, 120° 12' 20.801" E
Metar
Observation
RCNN 281230Z 01005KT 2400 -RA BR SCT008 BKN021 BKN040 18/17 Q1015 RMK A2998
Station
Tainan Tw-Afb
Date/Time
2022-01-28 12:30:00
Wind direction
10°
Wind speed
05 kts
Lowest cloud amount
scattered clouds
Temperature
18°C
Dew point
17°C
Humidity
93%
QNH
1015 hPa
Weather condition
n/a

Runways

Designator Length Width Surface Rops
18L/36R 3050 45 CON Yes/Yes
18R/36L 3050 45 CON Yes/Yes
Airport map: 
Aerial View: 

SKYbrary Partners:

Safety knowledge contributed by: